Nearby METAR Reports

 

EGAE - Eglinton/Londond, United Kingdom
Distance from station: N 47km
Updated: 25/06/2019 23:20
Mostly cloudy
Mostly cloudy
 Wind from W
Wind: W 9 km/h
Temperature: 13°C
Dew Point: 12°C
Humidity: 94%
Barometer: 1031 hPa
Clouds: Mostly cloudy
Visibility: 10 km
Cloud details: Few Clouds 122 m
Partly cloudy 305 m
Mostly cloudy 1311 m
2019/06/26 06:20 EGAE 260620Z 26005KT 9999 FEW004 SCT010 BKN043 13/12 Q1031
EGAA - Belfast/Aldergro, United Kingdom
Distance from station: E 68km
Updated: 25/06/2019 23:20
Partly cloudy
Partly cloudy
 Wind from ENE
Wind: ENE 7 km/h
Temperature: 13°C
Dew Point: 12°C
Humidity: 94%
Barometer: 1030 hPa
Clouds: Partly cloudy
Visibility: 10 km
Cloud details: Few Clouds 1219 m
Partly cloudy 1463 m
2019/06/26 06:20 EGAA 260620Z 07004KT 9999 FEW040 SCT048 13/12 Q1030